createdAt,value
2023-04-26T04:00:29.632Z,68.00
2023-04-26T04:05:29.639Z,124.00
2023-04-26T04:10:29.567Z,216.00
2023-04-26T04:15:36.561Z,336.00
2023-04-26T04:20:29.411Z,512.00
2023-04-26T04:25:29.355Z,760.00
2023-04-26T04:30:29.314Z,1068.00
2023-04-26T04:35:29.264Z,1436.00
2023-04-26T04:40:29.184Z,1812.00
2023-04-26T04:45:29.140Z,2528.00
2023-04-26T04:50:29.105Z,3092.00
2023-04-26T04:55:29.053Z,3848.00
2023-04-26T05:00:28.990Z,4692.00
2023-04-26T05:05:29.073Z,6032.00
2023-04-26T05:10:28.879Z,4988.00
2023-04-26T05:15:28.858Z,13248.00
2023-04-26T05:20:28.783Z,29536.00
2023-04-26T05:25:28.716Z,18144.00
2023-04-26T05:30:28.718Z,38528.00
2023-04-26T05:35:28.644Z,35872.00
2023-04-26T05:40:28.568Z,40544.00
2023-04-26T05:45:28.752Z,37088.00
2023-04-26T05:50:28.450Z,42784.00
2023-04-26T05:55:28.540Z,41792.00
2023-04-26T06:00:28.348Z,32960.00
2023-04-26T06:05:28.341Z,41792.00
2023-04-26T06:10:28.305Z,44416.00
2023-04-26T06:15:28.195Z,42464.00
2023-04-26T06:20:28.209Z,44576.00
2023-04-26T06:25:28.073Z,35104.00
2023-04-26T06:30:28.044Z,33312.00
2023-04-26T06:35:28.010Z,33088.00
2023-04-26T06:40:28.028Z,35840.00
2023-04-26T06:45:27.876Z,22656.00
2023-04-26T06:50:28.185Z,31072.00
2023-04-26T06:55:27.771Z,26880.00
2023-04-26T07:00:27.858Z,18592.00
2023-04-26T07:05:27.810Z,18208.00
2023-04-26T07:10:27.923Z,22272.00
2023-04-26T07:15:27.570Z,17344.00
2023-04-26T07:20:27.510Z,12428.00
2023-04-26T07:25:27.434Z,11440.00
2023-04-26T07:30:27.401Z,13056.00
2023-04-26T07:35:27.394Z,11376.00
2023-04-26T07:40:27.264Z,12344.00
2023-04-26T07:45:27.266Z,11760.00
2023-04-26T07:50:27.177Z,8868.00
2023-04-26T07:55:27.194Z,9636.00
2023-04-26T08:00:27.061Z,9760.00
2023-04-26T08:05:27.376Z,9324.00
2023-04-26T08:10:26.955Z,9428.00
2023-04-26T08:15:26.950Z,8356.00
2023-04-26T08:20:26.839Z,8144.00
2023-04-26T08:25:26.787Z,8016.00
2023-04-26T08:30:26.720Z,9772.00
2023-04-26T08:35:26.711Z,8424.00
2023-04-26T08:40:26.632Z,7364.00
2023-04-26T08:45:26.568Z,7388.00
2023-04-26T08:50:26.560Z,8948.00
2023-04-26T08:55:26.568Z,8292.00
2023-04-26T09:00:26.402Z,8192.00
2023-04-26T09:05:26.354Z,9116.00
2023-04-26T09:10:26.315Z,10788.00
2023-04-26T09:15:26.274Z,12900.00
2023-04-26T09:20:26.208Z,11452.00
2023-04-26T09:25:26.146Z,8508.00
2023-04-26T09:30:26.086Z,8208.00
2023-04-26T09:35:26.193Z,8476.00
2023-04-26T09:40:25.973Z,10388.00
2023-04-26T09:45:25.917Z,11972.00
2023-04-26T09:50:25.864Z,11264.00
2023-04-26T09:55:34.728Z,10024.00
2023-04-26T10:00:26.749Z,7244.00
2023-04-26T10:05:25.702Z,7504.00
2023-04-26T10:10:25.645Z,7992.00
2023-04-26T10:15:32.659Z,7632.00
2023-04-26T10:20:25.536Z,8128.00
2023-04-26T10:25:25.479Z,9044.00
2023-04-26T10:30:25.514Z,8176.00
2023-04-26T10:35:25.502Z,8912.00
2023-04-26T10:40:25.320Z,8856.00
2023-04-26T10:45:25.265Z,9624.00
2023-04-26T10:50:25.216Z,8748.00
2023-04-26T10:55:25.552Z,7744.00
2023-04-26T11:00:25.114Z,7296.00
2023-04-26T11:05:25.465Z,7172.00
2023-04-26T11:10:24.993Z,7864.00
2023-04-26T11:15:24.997Z,7024.00
2023-04-26T11:20:24.877Z,6472.00
2023-04-26T11:25:24.842Z,6016.00
2023-04-26T11:30:24.767Z,6316.00
2023-04-26T11:35:24.960Z,6608.00
2023-04-26T11:40:24.663Z,7248.00
2023-04-26T11:45:25.171Z,8660.00
2023-04-26T11:50:24.565Z,10372.00
2023-04-26T11:55:24.628Z,10792.00
2023-04-26T12:00:24.438Z,11580.00
2023-04-26T12:05:24.589Z,10688.00
2023-04-26T12:10:24.345Z,10452.00
2023-04-26T12:15:24.295Z,8656.00
2023-04-26T12:20:24.231Z,8084.00
2023-04-26T12:25:24.190Z,7796.00
2023-04-26T12:30:24.118Z,8116.00
2023-04-26T12:35:24.092Z,7568.00
2023-04-26T12:40:24.019Z,8736.00
2023-04-26T12:45:23.966Z,9588.00
2023-04-26T12:50:23.898Z,10240.00
2023-04-26T12:55:23.874Z,9976.00
2023-04-26T13:00:23.837Z,9060.00
2023-04-26T13:05:23.731Z,8696.00
2023-04-26T13:10:23.688Z,9556.00
2023-04-26T13:15:23.687Z,11124.00
2023-04-26T13:20:25.723Z,8000.00
2023-04-26T13:25:23.631Z,7716.00
2023-04-26T13:30:23.506Z,6684.00
2023-04-26T13:35:23.423Z,6584.00
2023-04-26T13:40:23.361Z,8144.00
2023-04-26T13:45:23.313Z,7296.00
2023-04-26T13:50:23.241Z,5452.00
2023-04-26T13:55:23.238Z,5600.00
2023-04-26T14:00:23.154Z,6596.00
2023-04-26T14:05:23.175Z,6712.00
2023-04-26T14:10:23.040Z,6816.00
2023-04-26T14:15:23.002Z,6776.00
2023-04-26T14:20:22.913Z,7428.00
2023-04-26T14:25:22.869Z,10184.00
2023-04-26T14:30:22.908Z,9708.00
2023-04-26T14:35:22.769Z,9220.00
2023-04-26T14:40:22.706Z,6088.00
2023-04-26T14:45:27.780Z,7988.00
2023-04-26T14:50:23.599Z,7376.00
2023-04-26T14:55:22.583Z,6892.00
2023-04-26T15:00:22.490Z,6652.00
2023-04-26T15:05:22.436Z,6584.00
2023-04-26T15:10:22.409Z,6464.00
2023-04-26T15:15:22.371Z,6480.00
2023-04-26T15:20:22.421Z,6248.00
2023-04-26T15:25:22.214Z,5948.00
2023-04-26T15:30:22.205Z,5544.00
2023-04-26T15:35:22.135Z,7032.00
2023-04-26T15:40:22.065Z,6132.00
2023-04-26T15:45:22.009Z,5836.00
2023-04-26T15:50:21.948Z,6040.00
2023-04-26T15:55:21.909Z,6300.00
2023-04-26T16:00:21.897Z,6500.00
2023-04-26T16:05:21.783Z,6036.00
2023-04-26T16:10:21.727Z,3660.00
2023-04-26T16:15:21.695Z,4268.00
2023-04-26T16:20:21.622Z,4656.00
2023-04-26T16:25:21.652Z,3624.00
2023-04-26T16:30:21.505Z,4152.00
2023-04-26T16:35:21.470Z,4064.00
2023-04-26T16:40:21.430Z,3436.00
2023-04-26T16:45:21.347Z,3388.00
2023-04-26T16:50:21.281Z,3064.00
2023-04-26T16:55:21.282Z,2924.00
2023-04-26T17:00:21.179Z,2784.00
2023-04-26T17:05:21.134Z,2640.00
2023-04-26T17:10:21.056Z,2412.00
2023-04-26T17:15:21.080Z,2192.00
2023-04-26T17:20:20.970Z,2020.00
2023-04-26T17:25:20.894Z,1936.00
2023-04-26T17:30:20.883Z,1852.00
2023-04-26T17:35:20.837Z,1692.00
2023-04-26T17:40:20.761Z,1512.00
2023-04-26T17:45:20.691Z,1340.00
2023-04-26T17:50:20.646Z,1232.00
2023-04-26T17:55:20.609Z,1100.00
2023-04-26T18:00:20.894Z,924.00
2023-04-26T18:05:20.484Z,772.00
2023-04-26T18:10:20.421Z,640.00
2023-04-26T18:15:20.409Z,512.00
2023-04-26T18:20:20.318Z,396.00
2023-04-26T18:25:20.268Z,312.00
2023-04-26T18:30:20.211Z,240.00
2023-04-26T18:35:20.189Z,184.00
2023-04-26T18:40:20.095Z,128.00
2023-04-26T18:45:20.059Z,84.00
2023-04-26T18:50:20.004Z,52.00
2023-04-26T18:55:19.969Z,28.00
2023-04-26T19:00:19.916Z,12.00
2023-04-26T19:05:20.294Z,8.00
2023-04-26T19:10:19.779Z,0.00
2023-04-26T19:15:19.764Z,0.00
2023-04-26T19:20:19.747Z,0.00
2023-04-26T19:25:19.622Z,0.00
2023-04-26T19:30:19.595Z,0.00
2023-04-26T19:35:19.545Z,0.00
2023-04-26T19:40:19.497Z,0.00
2023-04-26T19:45:19.409Z,0.00
2023-04-26T19:50:19.364Z,0.00
2023-04-26T19:55:19.447Z,0.00
2023-04-26T20:00:19.270Z,0.00
2023-04-26T20:05:19.216Z,0.00
2023-04-26T20:10:19.171Z,0.00
2023-04-26T20:15:19.123Z,0.00
2023-04-26T20:20:19.040Z,0.00
2023-04-26T20:25:19.026Z,0.00
2023-04-26T20:30:18.971Z,0.00
2023-04-26T20:35:18.898Z,0.00
2023-04-26T20:40:18.854Z,0.00
2023-04-26T20:45:18.808Z,0.00
2023-04-26T20:50:18.713Z,0.00
2023-04-26T20:55:18.706Z,0.00
2023-04-26T21:00:18.620Z,0.00
2023-04-26T21:05:18.598Z,0.00
2023-04-26T21:10:18.513Z,0.00
2023-04-26T21:15:18.490Z,0.00
2023-04-26T21:20:18.420Z,0.00
2023-04-26T21:25:18.346Z,0.00
2023-04-26T21:30:18.301Z,0.00
2023-04-26T21:35:18.281Z,0.00
2023-04-26T21:40:18.192Z,0.00
2023-04-26T21:45:18.279Z,0.00
2023-04-26T21:50:18.071Z,0.00
2023-04-26T21:55:18.051Z,0.00
2023-04-26T22:00:17.996Z,0.00
2023-04-26T22:05:17.945Z,0.00
2023-04-26T22:10:17.874Z,0.00
2023-04-26T22:15:17.845Z,0.00
2023-04-26T22:20:17.769Z,0.00
2023-04-26T22:25:17.711Z,0.00
2023-04-26T22:30:25.626Z,0.00
2023-04-26T22:35:18.635Z,0.00
2023-04-26T22:40:17.585Z,0.00
2023-04-26T22:45:17.510Z,0.00
2023-04-26T22:50:17.437Z,0.00
2023-04-26T22:55:17.442Z,0.00
2023-04-26T23:00:17.349Z,0.00
2023-04-26T23:05:17.284Z,0.00
2023-04-26T23:10:17.234Z,0.00
2023-04-26T23:15:17.210Z,0.00
2023-04-26T23:20:17.126Z,0.00
2023-04-26T23:25:17.073Z,0.00
